HBFSJ LSGG-LFLJ
Flight info
| Callsign | HBFSJ |
|---|---|
| Flight time | 0h 19m |
| Altitude | 19000 |
| Route | DCT |
| Aircraft | PC12/L-SDFGRWY/S |
Departure
| Time | 2026-04-24 01:25 |
|---|---|
| Airport | Geneva International Airport (LSGG) |
Arrival
| Time | 2026-04-24 01:45 |
|---|---|
| Airport | Courchevel Altiport (LFLJ) |
| Time | Latitude | Longitude | Altitude | Speed | Heading |
|---|---|---|---|---|---|
| 2026-04-24 00:52 | 46.23496 | 6.09812 | 1414 ft | 0 kts | 46° |
| 2026-04-24 01:24 | 46.23492 | 6.09854 | 1414 ft | 10 kts | 129° |
| 2026-04-24 01:24 | 46.23420 | 6.09955 | 1414 ft | 16 kts | 137° |
| 2026-04-24 01:24 | 46.23342 | 6.10067 | 1414 ft | 0 kts | 150° |
| 2026-04-24 01:24 | 46.23310 | 6.10127 | 1414 ft | 19 kts | 78° |
| 2026-04-24 01:25 | 46.23551 | 6.10522 | 1414 ft | 84 kts | 43° |
| 2026-04-24 01:25 | 46.24023 | 6.11212 | 1460 ft | 112 kts | 47° |
| 2026-04-24 01:25 | 46.24482 | 6.11930 | 1906 ft | 104 kts | 49° |
| 2026-04-24 01:25 | 46.24604 | 6.12987 | 2076 ft | 117 kts | 109° |
| 2026-04-24 01:26 | 46.24023 | 6.13870 | 2252 ft | 127 kts | 155° |
| 2026-04-24 01:26 | 46.23109 | 6.14184 | 2516 ft | 143 kts | 167° |
| 2026-04-24 01:26 | 46.22173 | 6.14715 | 2919 ft | 150 kts | 146° |
| 2026-04-24 01:26 | 46.21346 | 6.15688 | 3449 ft | 160 kts | 137° |
| 2026-04-24 01:27 | 46.20538 | 6.16743 | 4003 ft | 166 kts | 136° |
| 2026-04-24 01:27 | 46.19738 | 6.17885 | 4674 ft | 165 kts | 138° |
| 2026-04-24 01:27 | 46.18682 | 6.18817 | 4968 ft | 189 kts | 150° |
| 2026-04-24 01:27 | 46.17495 | 6.19751 | 5526 ft | 193 kts | 149° |
| 2026-04-24 01:28 | 46.16366 | 6.20699 | 6155 ft | 193 kts | 149° |
| 2026-04-24 01:28 | 46.15199 | 6.21720 | 6662 ft | 198 kts | 147° |
| 2026-04-24 01:28 | 46.14017 | 6.22770 | 7154 ft | 201 kts | 150° |
| 2026-04-24 01:28 | 46.12800 | 6.23762 | 7546 ft | 202 kts | 149° |
| 2026-04-24 01:29 | 46.11624 | 6.24780 | 8106 ft | 195 kts | 148° |
| 2026-04-24 01:29 | 46.10470 | 6.25766 | 8553 ft | 197 kts | 150° |
| 2026-04-24 01:29 | 46.09330 | 6.26690 | 8980 ft | 198 kts | 152° |
| 2026-04-24 01:29 | 46.08069 | 6.27671 | 8971 ft | 222 kts | 152° |
| 2026-04-24 01:30 | 46.06662 | 6.28750 | 9004 ft | 234 kts | 153° |
| 2026-04-24 01:30 | 46.05215 | 6.29857 | 9011 ft | 233 kts | 153° |
| 2026-04-24 01:30 | 46.03808 | 6.30938 | 9009 ft | 223 kts | 153° |
| 2026-04-24 01:30 | 46.02451 | 6.31982 | 9010 ft | 216 kts | 153° |
| 2026-04-24 01:31 | 46.01159 | 6.32979 | 9011 ft | 211 kts | 153° |
| 2026-04-24 01:31 | 45.99872 | 6.33971 | 9011 ft | 207 kts | 153° |
| 2026-04-24 01:31 | 45.98613 | 6.34941 | 9012 ft | 205 kts | 153° |
| 2026-04-24 01:31 | 45.97351 | 6.35914 | 9012 ft | 203 kts | 153° |
| 2026-04-24 01:32 | 45.96115 | 6.36863 | 9009 ft | 195 kts | 153° |
| 2026-04-24 01:32 | 45.94977 | 6.37735 | 9003 ft | 174 kts | 153° |
| 2026-04-24 01:32 | 45.93956 | 6.38462 | 9002 ft | 156 kts | 160° |
| 2026-04-24 01:32 | 45.92959 | 6.39005 | 9014 ft | 156 kts | 161° |
| 2026-04-24 01:33 | 45.91901 | 6.39548 | 9018 ft | 165 kts | 165° |
| 2026-04-24 01:33 | 45.90760 | 6.39987 | 9017 ft | 171 kts | 169° |
| 2026-04-24 01:33 | 45.89583 | 6.40341 | 9015 ft | 177 kts | 170° |
| 2026-04-24 01:33 | 45.88368 | 6.40698 | 9012 ft | 180 kts | 171° |
| 2026-04-24 01:34 | 45.87129 | 6.41059 | 9012 ft | 183 kts | 171° |
| 2026-04-24 01:34 | 45.85875 | 6.41423 | 9011 ft | 186 kts | 171° |
| 2026-04-24 01:34 | 45.84600 | 6.41792 | 9011 ft | 187 kts | 171° |
| 2026-04-24 01:34 | 45.83345 | 6.42154 | 9011 ft | 189 kts | 171° |
| 2026-04-24 01:35 | 45.82073 | 6.42521 | 9011 ft | 189 kts | 171° |
| 2026-04-24 01:35 | 45.80786 | 6.42891 | 9011 ft | 190 kts | 171° |
| 2026-04-24 01:35 | 45.79485 | 6.43266 | 9011 ft | 191 kts | 171° |
| 2026-04-24 01:35 | 45.78191 | 6.43623 | 9011 ft | 191 kts | 172° |
| 2026-04-24 01:36 | 45.76894 | 6.43930 | 9010 ft | 191 kts | 174° |
| 2026-04-24 01:36 | 45.75559 | 6.44113 | 9011 ft | 191 kts | 177° |
| 2026-04-24 01:36 | 45.74242 | 6.44273 | 9011 ft | 191 kts | 177° |
| 2026-04-24 01:36 | 45.72922 | 6.44430 | 9011 ft | 191 kts | 178° |
| 2026-04-24 01:37 | 45.71595 | 6.44422 | 9011 ft | 190 kts | 184° |
| 2026-04-24 01:37 | 45.70264 | 6.44393 | 9011 ft | 190 kts | 184° |
| 2026-04-24 01:37 | 45.68972 | 6.44365 | 9011 ft | 190 kts | 184° |
| 2026-04-24 01:37 | 45.67674 | 6.44337 | 9011 ft | 190 kts | 184° |
| 2026-04-24 01:38 | 45.66342 | 6.44329 | 9011 ft | 191 kts | 180° |
| 2026-04-24 01:38 | 45.65020 | 6.44419 | 9011 ft | 191 kts | 179° |
| 2026-04-24 01:38 | 45.63696 | 6.44512 | 8915 ft | 193 kts | 180° |
| 2026-04-24 01:38 | 45.62389 | 6.44663 | 8717 ft | 184 kts | 172° |
| 2026-04-24 01:39 | 45.61142 | 6.45019 | 8506 ft | 178 kts | 169° |
| 2026-04-24 01:39 | 45.59957 | 6.45371 | 8290 ft | 173 kts | 169° |
| 2026-04-24 01:39 | 45.58800 | 6.45711 | 8075 ft | 169 kts | 169° |
| 2026-04-24 01:39 | 45.57709 | 6.46127 | 8011 ft | 155 kts | 163° |
| 2026-04-24 01:40 | 45.56674 | 6.46582 | 8013 ft | 156 kts | 163° |
| 2026-04-24 01:40 | 45.55650 | 6.47121 | 8015 ft | 161 kts | 157° |
| 2026-04-24 01:40 | 45.54591 | 6.47774 | 8005 ft | 167 kts | 156° |
| 2026-04-24 01:40 | 45.53509 | 6.48442 | 7953 ft | 173 kts | 156° |
| 2026-04-24 01:41 | 45.52382 | 6.49137 | 7915 ft | 178 kts | 156° |
| 2026-04-24 01:41 | 45.51239 | 6.49840 | 7886 ft | 180 kts | 156° |
| 2026-04-24 01:41 | 45.50090 | 6.50604 | 7760 ft | 188 kts | 147° |
| 2026-04-24 01:41 | 45.48975 | 6.51691 | 7567 ft | 194 kts | 143° |
| 2026-04-24 01:42 | 45.48033 | 6.52949 | 7362 ft | 184 kts | 126° |
| 2026-04-24 01:42 | 45.47318 | 6.54440 | 7041 ft | 182 kts | 119° |
| 2026-04-24 01:42 | 45.46668 | 6.56010 | 6793 ft | 186 kts | 116° |
| 2026-04-24 01:42 | 45.46106 | 6.57678 | 6669 ft | 184 kts | 107° |
| 2026-04-24 01:43 | 45.45734 | 6.59391 | 6528 ft | 181 kts | 103° |
| 2026-04-24 01:43 | 45.45365 | 6.60951 | 6501 ft | 151 kts | 105° |
| 2026-04-24 01:43 | 45.45009 | 6.62350 | 6286 ft | 152 kts | 109° |
| 2026-04-24 01:43 | 45.44453 | 6.63653 | 6409 ft | 158 kts | 123° |
| 2026-04-24 01:44 | 45.43734 | 6.64844 | 6417 ft | 157 kts | 136° |
| 2026-04-24 01:44 | 45.42763 | 6.65605 | 6321 ft | 164 kts | 163° |
| 2026-04-24 01:44 | 45.41654 | 6.65725 | 6420 ft | 157 kts | 188° |
| 2026-04-24 01:44 | 45.40751 | 6.65057 | 6448 ft | 135 kts | 228° |
| 2026-04-24 01:45 | 45.40209 | 6.64187 | 6437 ft | 100 kts | 234° |
| 2026-04-24 01:45 | 45.39829 | 6.63604 | 6479 ft | 24 kts | 225° |
| 2026-04-24 01:45 | 45.39819 | 6.63590 | 6484 ft | 0 kts | 224° |
| 2026-04-24 01:46 | 45.39597 | 6.63376 | 6568 ft | 0 kts | 224° |
| 2026-04-24 01:46 | 45.39589 | 6.63374 | 6566 ft | 0 kts | 224° |